Time;durP1;ratioP1;P1;durP2;ratioP2;P2;SDS_P1;SDS_P2;PMS_P1;PMS_P2;Temp;Humidity;BMP_temperature;BMP_pressure;BME280_temperature;BME280_humidity;BME280_pressure;Samples;Min_cycle;Max_cycle;Signal;HPM_P1;HPM_P2
2024/02/16 00:00:12;;;;;;;0.20;0.20;;;;;;;4.26;56.95;102109.78;4921588;29;20173;-82
2024/02/16 00:02:38;;;;;;;0.10;0.10;;;;;;;4.31;56.60;102110.59;4921256;29;20109;-83
2024/02/16 00:05:07;;;;;;;0.15;0.15;;;;;;;4.30;56.77;102105.50;4953042;29;20063;-82
2024/02/16 00:07:34;;;;;;;0.10;0.10;;;;;;;4.31;57.09;102122.56;4952848;28;20541;-82
2024/02/16 00:10:01;;;;;;;0.10;0.10;;;;;;;4.12;57.20;102101.19;4953080;29;20074;-82
2024/02/16 00:12:27;;;;;;;0.20;0.20;;;;;;;4.19;57.09;102102.94;4953211;28;20527;-82
2024/02/16 00:14:52;;;;;;;0.20;0.20;;;;;;;4.24;57.16;102120.88;4936829;29;20035;-83
2024/02/16 00:17:18;;;;;;;0.20;0.20;;;;;;;4.29;57.23;102124.28;4968776;28;20498;-82
2024/02/16 00:19:43;;;;;;;0.13;0.13;;;;;;;4.26;57.16;102120.03;4952867;29;20465;-82
2024/02/16 00:22:10;;;;;;;0.20;0.20;;;;;;;4.22;57.11;102118.28;4921249;29;20494;-82
2024/02/16 00:24:36;;;;;;;0.10;0.10;;;;;;;4.17;57.10;102107.19;4921256;29;20027;-82
2024/02/16 00:27:05;;;;;;;0.10;0.10;;;;;;;4.09;57.29;102103.75;4936973;29;20490;-82
2024/02/16 00:29:31;;;;;;;0.10;0.10;;;;;;;4.20;57.36;102120.00;4936759;29;20483;-83
2024/02/16 00:31:59;;;;;;;0.10;0.10;;;;;;;4.19;57.25;102118.28;4952769;29;20031;-83
2024/02/16 00:34:25;;;;;;;0.10;0.10;;;;;;;4.06;57.39;102101.22;4936866;29;20063;-82
2024/02/16 00:36:51;;;;;;;0.20;0.20;;;;;;;4.06;57.81;102116.56;4920970;29;20358;-82
2024/02/16 00:39:17;;;;;;;0.20;0.20;;;;;;;3.94;57.80;102096.06;4952398;29;20521;-82
2024/02/16 00:41:43;;;;;;;0.10;0.10;;;;;;;3.99;57.61;102125.94;4920823;29;20100;-82
2024/02/16 00:44:08;;;;;;;0.10;0.10;;;;;;;3.78;57.85;102105.41;4920494;29;20031;-82
2024/02/16 00:46:36;;;;;;;0.10;0.10;;;;;;;3.80;58.19;102113.94;4920662;29;20481;-82
2024/02/16 00:49:01;;;;;;;0.10;0.10;;;;;;;3.76;58.29;102116.50;4936856;29;20045;-82
2024/02/16 00:51:27;;;;;;;0.10;0.10;;;;;;;3.81;58.15;102125.03;4936233;29;20033;-82
2024/02/16 00:53:52;;;;;;;0.10;0.10;;;;;;;3.85;58.10;102126.78;4952182;28;20039;-82
2024/02/16 00:56:18;;;;;;;0.10;0.10;;;;;;;3.86;57.92;102113.13;4936430;29;20039;-82
2024/02/16 00:58:44;;;;;;;0.20;0.20;;;;;;;3.82;58.36;102119.91;4920144;29;20058;-82
2024/02/16 01:01:11;;;;;;;0.10;0.10;;;;;;;3.73;58.53;102113.06;4952017;29;20035;-82
2024/02/16 01:03:39;;;;;;;0.10;0.10;;;;;;;3.57;58.35;102102.78;4936682;29;20084;-82
2024/02/16 01:06:05;;;;;;;0.10;0.10;;;;;;;3.63;58.65;102118.16;4935940;29;20087;-82
2024/02/16 01:08:31;;;;;;;0.10;0.10;;;;;;;3.55;58.64;102113.03;4952080;29;20405;-82
2024/02/16 01:10:57;;;;;;;0.10;0.10;;;;;;;3.50;58.63;102109.59;4936027;29;20110;-82
2024/02/16 01:13:23;;;;;;;0.10;0.10;;;;;;;3.56;58.59;102119.84;4935619;29;20446;-82
2024/02/16 01:15:48;;;;;;;0.10;0.10;;;;;;;3.51;59.12;102111.28;4952020;29;20556;-81
2024/02/16 01:18:14;;;;;;;0.10;0.10;;;;;;;3.54;58.75;102115.56;4952036;29;20211;-82
2024/02/16 01:20:40;;;;;;;0.10;0.10;;;;;;;3.46;58.63;102110.44;4952227;29;20105;-82
2024/02/16 01:23:06;;;;;;;0.10;0.10;;;;;;;3.41;58.46;102115.50;4951912;29;20035;-82
2024/02/16 01:25:31;;;;;;;0.20;0.20;;;;;;;3.27;58.56;102100.97;4951902;29;20023;-82
2024/02/16 01:27:57;;;;;;;0.10;0.10;;;;;;;3.28;58.22;102098.41;4951444;29;20027;-83
2024/02/16 01:30:23;;;;;;;0.20;0.20;;;;;;;3.45;57.99;102116.41;4935989;29;20037;-82
2024/02/16 01:32:48;;;;;;;0.10;0.10;;;;;;;3.27;58.20;102104.38;4935764;29;20047;-82
2024/02/16 01:35:14;;;;;;;0.20;0.20;;;;;;;3.30;58.29;102108.66;4935924;29;20027;-82
2024/02/16 01:37:41;;;;;;;0.10;0.10;;;;;;;2.98;58.69;102086.31;4951290;29;20053;-82
2024/02/16 01:40:13;;;;;;;0.10;0.10;;;;;;;3.05;59.04;102111.09;4951965;29;20062;-82
2024/02/16 01:42:39;;;;;;;0.20;0.20;;;;;;;3.04;58.85;102113.59;4951736;29;20038;-82
2024/02/16 01:45:05;;;;;;;0.10;0.10;;;;;;;2.87;59.04;102096.50;4935865;29;20059;-82
2024/02/16 01:47:31;;;;;;;0.10;0.10;;;;;;;2.92;59.44;102106.72;4951567;28;20093;-82
2024/02/16 01:49:56;;;;;;;0.10;0.10;;;;;;;2.91;59.45;102091.38;4951301;29;20466;-82
2024/02/16 01:52:22;;;;;;;0.10;0.10;;;;;;;2.98;59.30;102088.88;4935375;29;20494;-82
2024/02/16 01:54:47;;;;;;;0.10;0.10;;;;;;;2.84;59.69;102087.94;4967369;28;20561;-82
2024/02/16 01:57:14;;;;;;;0.10;0.10;;;;;;;2.86;59.82;102097.34;4935223;29;20110;-82
2024/02/16 01:59:40;;;;;;;0.10;0.10;;;;;;;2.78;59.30;102080.25;4935554;29;20086;-82
2024/02/16 02:02:06;;;;;;;0.10;0.10;;;;;;;2.69;59.42;102067.41;4935616;29;20032;-82
2024/02/16 02:04:32;;;;;;;0.10;0.10;;;;;;;2.75;59.44;102091.31;4935562;29;20033;-82
2024/02/16 02:06:57;;;;;;;0.10;0.10;;;;;;;2.64;59.34;102086.94;4938116;29;20515;-82
2024/02/16 02:09:23;;;;;;;0.10;0.10;;;;;;;2.53;59.82;102092.81;4955263;29;20038;-82
2024/02/16 02:11:49;;;;;;;0.10;0.10;;;;;;;2.59;60.00;102095.44;4923142;29;20035;-82
2024/02/16 02:14:14;;;;;;;0.20;0.20;;;;;;;2.47;59.99;102074.91;4939453;29;20023;-82
2024/02/16 02:16:40;;;;;;;0.20;0.20;;;;;;;2.56;60.23;102104.78;4939274;29;20524;-82
2024/02/16 02:19:05;;;;;;;0.10;0.10;;;;;;;2.36;60.33;102090.97;4955204;29;20441;-82
2024/02/16 02:21:31;;;;;;;0.10;0.10;;;;;;;2.27;60.50;102082.44;4955261;29;20035;-82
2024/02/16 02:23:56;;;;;;;0.10;0.10;;;;;;;2.28;60.87;102096.03;4939156;29;20035;-82
2024/02/16 02:26:22;;;;;;;0.10;0.10;;;;;;;2.41;60.60;102107.22;4938687;29;20035;-82
2024/02/16 02:28:47;;;;;;;0.10;0.10;;;;;;;2.43;60.24;102100.41;4939125;29;20556;-81
2024/02/16 02:31:13;;;;;;;0.10;0.10;;;;;;;2.25;60.63;102088.34;4954727;29;20485;-82
2024/02/16 02:33:39;;;;;;;0.20;0.20;;;;;;;2.40;60.55;102108.91;4954975;29;20474;-82
2024/02/16 02:36:05;;;;;;;0.10;0.10;;;;;;;2.30;60.59;102102.88;4954890;29;20145;-82
2024/02/16 02:38:31;;;;;;;0.10;0.10;;;;;;;2.33;60.92;102111.41;4954816;29;20031;-82
2024/02/16 02:40:56;;;;;;;0.10;0.10;;;;;;;2.41;60.52;102114.88;4938382;29;20027;-82
2024/02/16 02:43:23;;;;;;;0.10;0.10;;;;;;;2.44;60.42;102114.88;4970898;28;20090;-82
2024/02/16 02:45:48;;;;;;;0.10;0.10;;;;;;;2.42;60.64;102104.66;4923188;29;20122;-82
2024/02/16 02:48:14;;;;;;;0.10;0.10;;;;;;;2.52;60.60;102113.25;4954731;29;20027;-82
2024/02/16 02:50:39;;;;;;;0.10;0.10;;;;;;;2.54;60.31;102112.41;4938699;29;20031;-81
2024/02/16 02:53:05;;;;;;;0.10;0.10;;;;;;;2.46;60.10;102106.41;4938565;29;20024;-82
2024/02/16 02:55:31;;;;;;;0.20;0.20;;;;;;;2.53;60.17;102104.75;4954274;29;20027;-82
2024/02/16 02:57:57;;;;;;;0.10;0.10;;;;;;;2.53;59.99;102097.09;4954419;28;20198;-82
2024/02/16 03:00:23;;;;;;;0.10;0.10;;;;;;;2.52;60.17;102109.00;4954477;29;20038;-81
2024/02/16 03:02:49;;;;;;;0.10;0.10;;;;;;;2.68;59.90;102121.91;4922962;29;20118;-82
2024/02/16 03:05:15;;;;;;;0.20;0.20;;;;;;;2.66;60.33;102121.06;4954430;29;20027;-82
2024/02/16 03:07:40;;;;;;;0.20;0.20;;;;;;;2.70;59.89;102122.78;4938414;29;20115;-82
2024/02/16 03:10:09;;;;;;;0.10;0.10;;;;;;;2.69;59.77;102118.50;4937945;29;20035;-82
2024/02/16 03:12:34;;;;;;;0.10;0.10;;;;;;;2.63;60.11;102121.84;4938701;29;20508;-81
2024/02/16 03:15:00;;;;;;;0.20;0.20;;;;;;;2.72;60.16;102115.97;4954008;29;20031;-82
2024/02/16 03:17:26;;;;;;;0.10;0.10;;;;;;;2.65;59.88;102115.06;4953964;28;20035;-82
2024/02/16 03:19:51;;;;;;;0.10;0.10;;;;;;;2.46;60.00;102097.88;4954147;29;20039;-82
2024/02/16 03:22:17;;;;;;;0.10;0.10;;;;;;;2.41;59.88;102095.28;4938139;29;20058;-82
2024/02/16 03:24:44;;;;;;;0.10;0.10;;;;;;;2.55;60.40;102126.91;4969774;28;20055;-82
2024/02/16 03:27:10;;;;;;;0.20;0.20;;;;;;;2.51;60.61;102127.72;4938044;29;20420;-81
2024/02/16 03:29:36;;;;;;;0.10;0.10;;;;;;;2.48;60.40;102121.75;4954237;29;20125;-82
2024/02/16 03:32:01;;;;;;;0.20;0.20;;;;;;;2.43;60.09;102114.03;4955118;28;20110;-82
2024/02/16 03:34:27;;;;;;;0.10;0.10;;;;;;;2.54;60.57;102127.75;4938015;29;20027;-82
2024/02/16 03:36:53;;;;;;;0.10;0.10;;;;;;;2.51;60.27;102122.63;4937604;29;20118;-82
2024/02/16 03:39:20;;;;;;;0.10;0.10;;;;;;;2.46;60.69;102134.53;4937286;29;20552;-83
2024/02/16 03:41:48;;;;;;;0.10;0.10;;;;;;;2.34;61.01;102126.72;4938074;29;20062;-82
2024/02/16 03:44:15;;;;;;;0.20;0.20;;;;;;;2.31;61.02;102121.59;4922746;29;20031;-82
2024/02/16 03:46:42;;;;;;;0.20;0.20;;;;;;;2.36;61.42;102140.38;4953730;29;20027;-82
2024/02/16 03:49:07;;;;;;;0.10;0.10;;;;;;;2.29;60.81;102115.63;4953675;29;20390;-82
2024/02/16 03:51:33;;;;;;;0.10;0.10;;;;;;;2.42;60.74;102131.91;4953716;29;20548;-82
2024/02/16 03:53:59;;;;;;;0.10;0.10;;;;;;;2.42;61.05;102134.47;4936981;29;20054;-83
2024/02/16 03:56:24;;;;;;;0.20;0.20;;;;;;;2.50;60.72;102131.13;4953765;29;20441;-85
2024/02/16 03:58:50;;;;;;;0.10;0.10;;;;;;;2.52;60.84;102129.44;4953292;29;20059;-85
2024/02/16 04:01:16;;;;;;;0.10;0.10;;;;;;;2.50;60.29;102135.38;4921620;29;20031;-81
2024/02/16 04:03:41;;;;;;;0.10;0.10;;;;;;;2.53;60.60;102136.25;4953331;29;20409;-81
2024/02/16 04:06:07;;;;;;;0.10;0.10;;;;;;;2.54;60.57;102143.06;4953382;29;20039;-81
2024/02/16 04:08:33;;;;;;;0.10;0.10;;;;;;;2.37;60.71;102131.88;4921152;29;20125;-81
2024/02/16 04:10:59;;;;;;;0.10;0.10;;;;;;;2.39;60.79;102137.00;4937001;29;20056;-81
2024/02/16 04:13:25;;;;;;;0.10;0.10;;;;;;;2.29;61.70;102141.16;4953203;29;20035;-81
2024/02/16 04:15:50;;;;;;;0.10;0.10;;;;;;;2.36;61.57;102150.59;4953125;29;20078;-82
2024/02/16 04:18:16;;;;;;;0.10;0.10;;;;;;;2.18;61.76;102132.56;4920894;29;20070;-81
2024/02/16 04:20:41;;;;;;;0.10;0.10;;;;;;;2.27;61.65;102148.81;4937399;29;20035;-81
2024/02/16 04:23:07;;;;;;;0.10;0.10;;;;;;;2.32;61.60;102146.28;4952694;29;20035;-82
2024/02/16 04:25:32;;;;;;;0.20;0.20;;;;;;;2.20;62.11;102146.19;4921132;29;20023;-82
2024/02/16 04:27:58;;;;;;;0.10;0.10;;;;;;;2.25;61.77;102154.72;4953058;28;20070;-82
2024/02/16 04:30:24;;;;;;;0.10;0.10;;;;;;;2.23;61.48;102151.31;4936553;29;20027;-83
2024/02/16 04:32:50;;;;;;;0.10;0.10;;;;;;;2.16;61.75;102155.50;4920683;29;20031;-81
2024/02/16 04:35:15;;;;;;;0.10;0.10;;;;;;;2.17;61.49;102148.72;4953046;29;20035;-81
2024/02/16 04:37:41;;;;;;;0.10;0.10;;;;;;;2.19;61.20;102144.47;4967831;28;20055;-82
2024/02/16 04:40:07;;;;;;;0.10;0.10;;;;;;;2.11;62.21;102140.97;4936680;29;20054;-82
2024/02/16 04:42:33;;;;;;;0.10;0.10;;;;;;;2.22;61.70;102149.59;4968615;28;20107;-83
2024/02/16 04:44:58;;;;;;;0.10;0.10;;;;;;;2.27;61.40;102148.81;4952663;29;20114;-84
2024/02/16 04:47:27;;;;;;;0.20;0.20;;;;;;;2.28;61.61;102157.34;4936476;29;20035;-83
2024/02/16 04:49:53;;;;;;;0.10;0.10;;;;;;;2.08;61.26;102120.53;4952287;28;20051;-83
2024/02/16 04:52:19;;;;;;;0.10;0.10;;;;;;;2.20;61.83;102152.16;4951877;29;20073;-83
2024/02/16 04:54:44;;;;;;;0.10;0.10;;;;;;;2.05;61.74;102130.69;4952378;29;20058;-81
2024/02/16 04:57:10;;;;;;;0.10;0.10;;;;;;;2.13;62.10;102150.38;4952330;29;20031;-82
2024/02/16 04:59:35;;;;;;;0.10;0.10;;;;;;;2.19;61.85;102160.66;4968731;28;20038;-82
2024/02/16 05:02:01;;;;;;;0.10;0.10;;;;;;;2.17;61.72;102151.28;4936132;29;20179;-81
2024/02/16 05:04:26;;;;;;;0.10;0.10;;;;;;;2.13;62.44;102159.72;4961531;28;20113;-82
2024/02/16 05:06:55;;;;;;;0.10;0.10;;;;;;;2.07;62.83;102146.91;4952546;28;20030;-87
2024/02/16 05:09:23;;;;;;;0.10;0.10;;;;;;;2.11;62.37;102169.06;4971668;28;20031;-81
2024/02/16 05:11:51;;;;;;;0.20;0.20;;;;;;;2.07;62.59;102159.69;4970950;28;20058;-84
2024/02/16 05:14:16;;;;;;;0.10;0.10;;;;;;;2.14;62.85;102158.88;4971990;28;20027;-81
2024/02/16 05:16:44;;;;;;;0.10;0.10;;;;;;;2.09;62.38;102156.28;4970790;28;20069;-84
2024/02/16 05:19:10;;;;;;;0.10;0.10;;;;;;;2.10;62.40;102164.81;4954604;28;20031;-81
2024/02/16 05:21:36;;;;;;;0.10;0.10;;;;;;;2.13;62.26;102159.72;4970572;28;20038;-90
2024/02/16 05:24:01;;;;;;;0.20;0.20;;;;;;;2.21;62.23;102171.72;4969794;28;20456;-90
2024/02/16 05:26:27;;;;;;;0.10;0.10;;;;;;;2.22;62.28;102172.59;4971726;28;20408;-83
2024/02/16 05:28:53;;;;;;;0.10;0.10;;;;;;;2.22;62.43;102180.25;4973225;28;20041;-87
2024/02/16 05:31:18;;;;;;;0.20;0.20;;;;;;;2.28;62.00;102170.97;4971114;28;20030;-83
2024/02/16 05:33:47;;;;;;;0.10;0.10;;;;;;;2.24;62.23;102176.84;4989134;28;20050;-89
2024/02/16 05:36:20;;;;;;;0.10;0.10;;;;;;;2.20;62.39;102171.72;4969053;28;20046;-86
2024/02/16 05:38:46;;;;;;;0.20;0.20;;;;;;;2.09;62.19;102160.53;4970324;28;20088;-80
2024/02/16 05:41:12;;;;;;;0.10;0.10;;;;;;;2.21;62.31;102186.19;4971089;28;20035;-90
2024/02/16 05:43:40;;;;;;;0.10;0.10;;;;;;;2.15;62.36;102193.78;4955253;28;20039;-90
2024/02/16 05:46:06;;;;;;;0.10;0.10;;;;;;;2.22;62.39;102198.13;4953412;28;20034;-88
2024/02/16 05:48:39;;;;;;;0.10;0.10;;;;;;;2.29;62.48;102200.75;4953916;28;20086;-85
2024/02/16 05:51:05;;;;;;;0.10;0.10;;;;;;;2.07;62.53;102172.44;4953644;28;20424;-87
2024/02/16 05:53:31;;;;;;;0.17;0.17;;;;;;;2.26;62.54;102194.75;4968897;28;20062;-86
2024/02/16 05:55:58;;;;;;;0.20;0.20;;;;;;;2.22;62.60;102187.91;4966188;28;20085;-85
2024/02/16 05:58:24;;;;;;;0.20;0.20;;;;;;;2.25;63.01;102188.78;4968424;28;20039;-86
2024/02/16 06:00:49;;;;;;;0.10;0.10;;;;;;;2.24;62.90;102191.31;4968176;28;20034;-82
2024/02/16 06:03:15;;;;;;;0.10;0.10;;;;;;;2.30;63.05;102199.06;4968178;28;20059;-82
2024/02/16 06:05:40;;;;;;;0.20;0.20;;;;;;;2.33;62.77;102199.06;4968656;28;20066;-83
2024/02/16 06:08:07;;;;;;;0.10;0.10;;;;;;;2.37;62.71;102205.94;4966206;28;20035;-80
2024/02/16 06:10:33;;;;;;;0.10;0.10;;;;;;;2.34;62.92;102199.94;4967699;28;20069;-86
2024/02/16 06:12:59;;;;;;;0.10;0.10;;;;;;;2.38;62.95;102207.66;4968834;28;20045;-85
2024/02/16 06:15:25;;;;;;;0.10;0.10;;;;;;;2.50;62.29;102212.88;4972288;28;20031;-90
2024/02/16 06:17:50;;;;;;;0.17;0.17;;;;;;;2.52;62.29;102210.34;4967790;28;20108;-91
2024/02/16 06:20:16;;;;;;;0.10;0.10;;;;;;;2.65;62.00;102213.84;4968593;28;20429;-89
2024/02/16 06:22:42;;;;;;;0.10;0.10;;;;;;;2.70;61.76;102215.63;4970867;28;20037;-89
2024/02/16 06:25:08;;;;;;;0.10;0.10;;;;;;;2.74;62.44;102211.38;4952952;28;20045;-81
2024/02/16 06:27:33;;;;;;;0.10;0.10;;;;;;;2.86;62.21;102225.16;4969342;28;20031;-84
2024/02/16 06:29:59;;;;;;;0.15;0.15;;;;;;;2.86;62.25;102222.59;4970555;28;20065;-87
2024/02/16 06:32:25;;;;;;;0.10;0.10;;;;;;;2.66;62.33;102188.34;4953326;28;20022;-83
2024/02/16 06:34:50;;;;;;;0.20;0.20;;;;;;;2.90;62.30;102217.50;4968548;28;20070;-83
2024/02/16 06:37:16;;;;;;;0.20;0.20;;;;;;;2.95;62.70;102220.91;4970220;28;20054;-89
2024/02/16 06:39:43;;;;;;;0.10;0.10;;;;;;;2.92;62.40;102206.44;4963258;28;20038;-86
2024/02/16 06:42:08;;;;;;;0.10;0.10;;;;;;;3.13;62.42;102232.16;5007554;23;20096;-89
2024/02/16 06:44:34;;;;;;;0.20;0.20;;;;;;;3.07;62.48;102200.59;4990356;28;20034;-88
2024/02/16 06:46:59;;;;;;;0.10;0.10;;;;;;;3.27;62.37;102228.84;4991448;28;20027;-86
2024/02/16 06:49:25;;;;;;;0.10;0.10;;;;;;;3.28;62.16;102225.44;4988101;28;20416;-89
2024/02/16 06:51:50;;;;;;;0.10;0.10;;;;;;;3.48;62.27;102244.34;4989431;28;20037;-80
2024/02/16 06:54:16;;;;;;;0.20;0.20;;;;;;;3.55;62.12;102242.69;4989127;28;20032;-84
2024/02/16 06:56:41;;;;;;;0.10;0.10;;;;;;;3.60;62.24;102239.28;4987337;28;20037;-85
2024/02/16 06:59:08;;;;;;;0.10;0.10;;;;;;;3.67;62.56;102241.03;4987127;28;20026;-83
2024/02/16 07:01:34;;;;;;;0.10;0.10;;;;;;;3.78;62.17;102248.78;4987164;28;20030;-94
2024/02/16 07:04:01;;;;;;;0.10;0.10;;;;;;;3.84;61.62;102242.84;4983460;28;20484;-85
2024/02/16 07:06:27;;;;;;;0.10;0.10;;;;;;;3.83;61.37;102243.66;4996739;28;20030;-90
2024/02/16 07:08:52;;;;;;;0.10;0.10;;;;;;;3.89;61.07;102225.78;4992287;28;20539;-86
2024/02/16 07:11:20;;;;;;;0.10;0.10;;;;;;;3.94;60.65;102224.09;4976440;28;20045;-87
2024/02/16 07:13:46;;;;;;;0.10;0.10;;;;;;;4.24;60.88;102254.94;5020912;28;20027;-88
2024/02/16 07:16:12;;;;;;;0.20;0.20;;;;;;;4.32;60.95;102253.22;4978228;28;20023;-90
2024/02/16 07:18:37;;;;;;;0.20;0.20;;;;;;;4.38;60.85;102256.69;4979527;28;20045;-89
2024/02/16 07:21:03;;;;;;;0.10;0.10;;;;;;;4.47;60.64;102247.31;4970527;28;20041;-86
2024/02/16 07:23:29;;;;;;;0.20;0.20;;;;;;;4.52;60.73;102245.63;4991502;28;20038;-84
2024/02/16 07:25:56;;;;;;;0.10;0.10;;;;;;;4.63;60.62;102243.06;4991504;28;20030;-85
2024/02/16 07:28:25;;;;;;;0.10;0.10;;;;;;;4.69;60.81;102255.03;4990099;28;20048;-83
2024/02/16 07:30:51;;;;;;;0.10;0.10;;;;;;;4.76;60.79;102257.59;5000953;28;20037;-84
2024/02/16 07:33:16;;;;;;;0.20;0.20;;;;;;;4.78;61.32;102243.06;4991405;28;20030;-82
2024/02/16 07:35:42;;;;;;;0.10;0.10;;;;;;;4.96;60.28;102249.06;4990897;28;20039;-82
2024/02/16 07:38:07;;;;;;;0.10;0.10;;;;;;;5.05;60.55;102252.50;4969386;28;20141;-87
2024/02/16 07:40:33;;;;;;;0.20;0.20;;;;;;;5.08;60.02;102252.47;4973579;28;20085;-86
2024/02/16 07:42:58;;;;;;;0.10;0.10;;;;;;;5.01;60.29;102244.78;4973977;28;20051;-85
2024/02/16 07:45:24;;;;;;;0.20;0.20;;;;;;;5.08;60.30;102254.19;4982750;28;20062;-82
2024/02/16 07:47:50;;;;;;;0.10;0.10;;;;;;;5.15;59.98;102230.25;4970594;28;20045;-84
2024/02/16 07:50:22;;;;;;;0.10;0.10;;;;;;;5.21;59.93;102240.53;4970741;28;20459;-87
2024/02/16 07:52:48;;;;;;;0.20;0.20;;;;;;;5.22;60.54;102254.22;4973519;28;20034;-89
2024/02/16 07:55:14;;;;;;;0.10;0.10;;;;;;;5.24;60.08;102248.22;4969721;28;20045;-86
2024/02/16 07:57:39;;;;;;;0.20;0.20;;;;;;;5.25;60.18;102247.34;4976812;28;20038;-86
2024/02/16 08:00:06;;;;;;;0.20;0.20;;;;;;;5.45;59.49;102258.44;4988202;28;20034;-85
2024/02/16 08:02:32;;;;;;;0.17;0.17;;;;;;;5.55;59.26;102271.25;4990482;28;20031;-86
2024/02/16 08:04:58;;;;;;;0.20;0.20;;;;;;;5.62;58.88;102247.28;4985112;28;20041;-88
2024/02/16 08:07:24;;;;;;;0.20;0.20;;;;;;;5.72;58.65;102270.38;4984174;28;20057;-83
2024/02/16 08:09:49;;;;;;;0.20;0.20;;;;;;;5.70;58.01;102237.81;4989988;28;20065;-87
2024/02/16 08:12:15;;;;;;;0.20;0.20;;;;;;;5.86;57.97;102272.88;4996473;28;20520;-90
2024/02/16 08:14:41;;;;;;;0.20;0.20;;;;;;;5.95;58.14;102278.03;4984334;28;20500;-88
2024/02/16 08:17:07;;;;;;;0.20;0.20;;;;;;;6.05;57.68;102263.44;4983614;28;20567;-85
2024/02/16 08:19:34;;;;;;;0.20;0.20;;;;;;;5.98;58.13;102257.47;4990307;28;20026;-83
2024/02/16 08:22:03;;;;;;;0.20;0.20;;;;;;;6.17;57.62;102270.22;4991226;28;20027;-82
2024/02/16 08:24:28;;;;;;;0.10;0.10;;;;;;;6.19;58.35;102258.22;5016180;28;20034;-83
2024/02/16 08:26:54;;;;;;;0.20;0.20;;;;;;;6.24;57.76;102270.19;4969707;28;20126;-82
2024/02/16 08:29:20;;;;;;;0.10;0.10;;;;;;;6.40;57.29;102275.28;4997319;28;20038;-88
2024/02/16 08:31:49;;;;;;;0.20;0.20;;;;;;;6.55;56.87;102275.19;4989278;28;20424;-89
2024/02/16 08:34:14;;;;;;;0.20;0.20;;;;;;;6.58;56.38;102258.00;4990750;28;20113;-87
2024/02/16 08:36:46;;;;;;;0.20;0.20;;;;;;;6.71;56.13;102268.22;4972646;28;20198;-83
2024/02/16 08:39:13;;;;;;;0.20;0.20;;;;;;;6.83;55.95;102283.56;4997994;28;20034;-80
2024/02/16 08:41:38;;;;;;;0.20;0.20;;;;;;;6.88;55.79;102271.50;4989382;28;20101;-89
2024/02/16 08:44:04;;;;;;;0.20;0.20;;;;;;;6.88;55.53;102268.94;4983481;28;20467;-86
2024/02/16 08:46:30;;;;;;;0.10;0.10;;;;;;;6.98;55.87;102262.88;4954073;28;20572;-87
2024/02/16 08:48:56;;;;;;;0.10;0.10;;;;;;;7.14;55.42;102282.47;4990482;28;20030;-82
2024/02/16 08:51:21;;;;;;;0.10;0.10;;;;;;;7.17;54.93;102271.28;4988614;28;20416;-88
2024/02/16 08:53:47;;;;;;;0.20;0.20;;;;;;;7.16;55.25;102264.44;4974951;28;20036;-88
2024/02/16 08:56:12;;;;;;;0.20;0.20;;;;;;;7.31;54.83;102284.06;4967562;28;20057;-92
2024/02/16 08:58:38;;;;;;;0.20;0.20;;;;;;;7.36;54.63;102269.41;4990122;28;20504;-88
2024/02/16 09:01:04;;;;;;;0.20;0.20;;;;;;;7.51;54.01;102255.53;4984504;28;20159;-85
2024/02/16 09:03:36;;;;;;;0.20;0.20;;;;;;;7.76;53.26;102269.84;5001306;28;20113;-88
2024/02/16 09:06:02;;;;;;;0.20;0.20;;;;;;;7.83;53.23;102275.78;4968267;28;20435;-88
2024/02/16 09:08:32;;;;;;;0.20;0.20;;;;;;;7.96;53.00;102277.34;4976509;28;20109;-83
2024/02/16 09:11:04;;;;;;;0.20;0.20;;;;;;;7.94;52.77;102264.47;4984635;28;20077;-84
2024/02/16 09:13:39;;;;;;;0.20;0.20;;;;;;;8.09;52.66;102285.81;4989097;28;20037;-81
2024/02/16 09:16:05;;;;;;;0.20;0.20;;;;;;;8.10;52.55;102260.00;4988533;28;20034;-82
2024/02/16 09:18:31;;;;;;;0.20;0.20;;;;;;;8.23;52.51;102264.13;4985677;28;20045;-87
2024/02/16 09:20:56;;;;;;;0.20;0.20;;;;;;;8.28;51.99;102251.19;4973215;28;20424;-87
2024/02/16 09:23:22;;;;;;;0.20;0.20;;;;;;;8.28;52.75;102230.56;4990077;28;20026;-84
2024/02/16 09:25:49;;;;;;;0.10;0.10;;;;;;;8.49;51.60;102260.38;4989619;28;20034;-90
2024/02/16 09:28:14;;;;;;;0.20;0.20;;;;;;;8.58;52.13;102260.25;4988476;28;20037;-85
2024/02/16 09:30:40;;;;;;;0.20;0.20;;;;;;;8.68;51.31;102259.25;4983469;28;20054;-91
2024/02/16 09:33:07;;;;;;;0.20;0.20;;;;;;;8.65;51.47;102258.41;4989080;28;20033;-85
2024/02/16 09:35:32;;;;;;;0.20;0.20;;;;;;;8.84;50.80;102258.09;4988915;28;20034;-83
2024/02/16 09:37:58;;;;;;;0.20;0.20;;;;;;;9.00;50.15;102250.97;4989191;28;20419;-90
2024/02/16 09:40:23;;;;;;;0.20;0.20;;;;;;;9.17;49.97;102253.28;4985539;28;20030;-91
2024/02/16 09:42:49;;;;;;;0.20;0.20;;;;;;;9.18;49.34;102249.81;4988052;28;20050;-83
2024/02/16 09:45:15;;;;;;;0.10;0.10;;;;;;;9.31;49.27;102261.63;4968086;28;20592;-91
2024/02/16 09:47:49;;;;;;;0.20;0.20;;;;;;;9.40;49.23;102260.63;5004429;28;20141;-81
2024/02/16 09:50:15;;;;;;;0.20;0.20;;;;;;;9.39;48.50;102254.59;4986898;28;20037;-80
2024/02/16 09:52:40;;;;;;;0.20;0.20;;;;;;;9.58;48.54;102259.44;5012548;28;20101;-84
2024/02/16 09:55:10;;;;;;;0.10;0.10;;;;;;;9.42;48.15;102233.03;5004986;28;20030;-87
2024/02/16 09:57:35;;;;;;;0.20;0.20;;;;;;;9.48;47.88;102243.25;4996513;28;20044;-85
2024/02/16 10:00:03;;;;;;;0.20;0.20;;;;;;;9.78;47.87;102242.66;5008301;28;20038;-82
2024/02/16 10:02:38;;;;;;;0.20;0.20;;;;;;;10.05;47.71;102248.16;5016479;28;20041;-86
2024/02/16 10:05:30;;;;;;;0.20;0.20;;;;;;;10.25;47.27;102227.94;5009526;28;20030;-85
2024/02/16 10:07:56;;;;;;;0.20;0.20;;;;;;;10.41;46.83;102227.56;5019058;28;20072;-84
2024/02/16 10:10:26;;;;;;;0.20;0.20;;;;;;;10.59;46.42;102243.53;5007286;28;20030;-81
2024/02/16 10:13:05;;;;;;;0.20;0.20;;;;;;;10.57;46.19;102232.38;5012131;28;20064;-81
2024/02/16 10:15:34;;;;;;;0.20;0.20;;;;;;;10.71;46.98;102234.63;5006426;28;20026;-81
2024/02/16 10:18:04;;;;;;;0.20;0.20;;;;;;;10.74;46.29;102234.56;5004629;28;20475;-85
2024/02/16 10:20:30;;;;;;;0.20;0.20;;;;;;;10.76;45.74;102208.63;4995724;28;20026;-83
2024/02/16 10:23:08;;;;;;;0.20;0.20;;;;;;;10.90;45.97;102233.28;5002303;28;20411;-83
2024/02/16 10:25:42;;;;;;;0.20;0.20;;;;;;;11.06;45.56;102231.19;4988393;28;20042;-80
2024/02/16 10:28:13;;;;;;;0.10;0.10;;;;;;;11.14;45.08;102229.25;5021123;28;20052;-80
2024/02/16 10:30:40;;;;;;;0.20;0.20;;;;;;;11.22;45.72;102223.88;4995755;28;20018;-80
2024/02/16 10:33:08;;;;;;;0.20;0.20;;;;;;;11.32;45.27;102217.56;4990522;28;20136;-80
2024/02/16 10:35:38;;;;;;;0.20;0.20;;;;;;;11.39;45.09;102215.63;5006792;28;20030;-85
2024/02/16 10:38:06;;;;;;;0.20;0.20;;;;;;;11.41;44.63;102209.53;4992854;28;20029;-90
2024/02/16 10:40:41;;;;;;;0.20;0.20;;;;;;;11.56;44.94;102203.06;5005696;28;20117;-83
2024/02/16 10:43:08;;;;;;;0.20;0.20;;;;;;;11.59;44.60;102192.59;5006970;28;20041;-82
2024/02/16 10:45:37;;;;;;;0.20;0.20;;;;;;;11.63;44.21;102186.47;4967443;28;20184;-82
2024/02/16 10:48:04;;;;;;;0.20;0.20;;;;;;;11.73;44.08;102187.88;5005206;28;20023;-84
2024/02/16 10:50:30;;;;;;;0.20;0.20;;;;;;;11.83;43.80;102193.69;4989909;28;20041;-86
2024/02/16 10:52:56;;;;;;;0.10;0.10;;;;;;;11.94;42.83;102189.03;4977053;28;20045;-86
2024/02/16 10:55:23;;;;;;;0.15;0.15;;;;;;;11.83;42.71;102180.72;4989641;28;20037;-93
2024/02/16 10:57:49;;;;;;;0.10;0.10;;;;;;;11.93;42.91;102187.34;4992154;28;20038;-85
2024/02/16 11:00:17;;;;;;;0.20;0.20;;;;;;;11.84;42.91;102156.50;4974147;28;20023;-83
2024/02/16 11:02:59;;;;;;;0.20;0.20;;;;;;;12.01;42.47;102171.56;4999808;28;20034;-86
2024/02/16 11:05:47;;;;;;;0.20;0.20;;;;;;;12.08;43.27;102165.25;4991117;28;20069;-84
2024/02/16 11:08:14;;;;;;;0.20;0.20;;;;;;;12.11;43.16;102162.59;4974536;28;20519;-83
2024/02/16 11:10:39;;;;;;;0.10;0.10;;;;;;;12.21;42.91;102150.19;4985770;28;20058;-86
2024/02/16 11:13:05;;;;;;;0.20;0.20;;;;;;;12.44;42.73;102167.59;4983118;28;20042;-88
2024/02/16 11:15:32;;;;;;;0.20;0.20;;;;;;;12.44;42.56;102152.88;4970248;28;20113;-85
2024/02/16 11:18:02;;;;;;;0.20;0.20;;;;;;;12.41;42.39;102153.00;4998571;28;20042;-85
2024/02/16 11:20:27;;;;;;;0.20;0.20;;;;;;;12.48;42.27;102153.63;4985101;28;20065;-88
2024/02/16 11:22:53;;;;;;;0.15;0.15;;;;;;;12.62;42.33;102161.81;4971554;28;20054;-86
2024/02/16 11:25:20;;;;;;;0.20;0.20;;;;;;;12.79;41.63;102150.88;4971768;28;20483;-81
2024/02/16 11:27:47;;;;;;;0.20;0.20;;;;;;;12.89;41.38;102150.50;5000552;28;20045;-92